Time;durP1;ratioP1;P1;durP2;ratioP2;P2;SDS_P1;SDS_P2;PMS_P1;PMS_P2;Temp;Humidity;BMP_temperature;BMP_pressure;BME280_temperature;BME280_humidity;BME280_pressure;Samples;Min_cycle;Max_cycle;Signal;HPM_P1;HPM_P2
2022/03/29 00:01:59;;;;;;;;;;;18.80;56.30;;;;;;5024593;28;1959;-70
2022/03/29 00:04:24;;;;;;;;;;;18.80;56.30;;;;;;5029374;28;1374;-70
2022/03/29 00:06:50;;;;;;;;;;;18.70;56.30;;;;;;5029296;28;1327;-70
2022/03/29 00:09:15;;;;;;;;;;;18.70;56.30;;;;;;5029233;28;1174;-69
2022/03/29 00:11:41;;;;;;;;;;;18.70;56.30;;;;;;5032964;28;1073;-69
2022/03/29 00:14:07;;;;;;;;;;;18.70;56.30;;;;;;5064664;28;1075;-69
2022/03/29 00:16:33;;;;;;;;;;;18.70;56.30;;;;;;5032707;28;1228;-69
2022/03/29 00:18:58;;;;;;;;;;;18.70;56.40;;;;;;5032922;28;1393;-70
2022/03/29 00:21:24;;;;;;;;;;;18.70;56.40;;;;;;5032849;28;1910;-70
2022/03/29 00:23:49;;;;;;;;;;;18.70;56.40;;;;;;5031962;28;1380;-70
2022/03/29 00:26:16;;;;;;;;;;;18.70;56.40;;;;;;5032669;28;1357;-70
2022/03/29 00:28:42;;;;;;;;;;;18.70;56.40;;;;;;5032678;28;1352;-71
2022/03/29 00:31:07;;;;;;;;;;;18.70;56.50;;;;;;5032844;28;1077;-70
2022/03/29 00:33:33;;;;;;;;;;;18.70;56.50;;;;;;5032834;28;1392;-70
2022/03/29 00:35:58;;;;;;;;;;;18.70;56.50;;;;;;5029755;28;1366;-70
2022/03/29 00:38:24;;;;;;;;;;;18.70;56.50;;;;;;5026353;28;1099;-70
2022/03/29 00:40:49;;;;;;;;;;;18.70;56.50;;;;;;5032781;28;1965;-70
2022/03/29 00:43:15;;;;;;;;;;;18.60;56.50;;;;;;5031392;28;1334;-69
2022/03/29 00:45:40;;;;;;;;;;;18.60;56.50;;;;;;5031112;28;1454;-70
2022/03/29 00:48:08;;;;;;;;;;;18.70;56.60;;;;;;5032665;28;1400;-69
2022/03/29 00:50:35;;;;;;;;;;;18.70;56.60;;;;;;5032754;28;1458;-69
2022/03/29 00:53:00;;;;;;;;;;;18.60;56.60;;;;;;5032633;28;1329;-71
2022/03/29 00:55:25;;;;;;;;;;;18.60;56.60;;;;;;5031263;28;1272;-69
2022/03/29 00:57:51;;;;;;;;;;;18.60;56.60;;;;;;5030858;28;1248;-70
2022/03/29 01:00:16;;;;;;;;;;;18.60;56.60;;;;;;5011665;28;1396;-70
2022/03/29 01:02:42;;;;;;;;;;;18.60;56.70;;;;;;5018233;28;1906;-69
2022/03/29 01:05:08;;;;;;;;;;;18.60;56.90;;;;;;5028019;28;1283;-69
2022/03/29 01:07:33;;;;;;;;;;;18.60;56.70;;;;;;5047751;28;1407;-70
2022/03/29 01:10:01;;;;;;;;;;;18.60;56.70;;;;;;5032370;28;1416;-70
2022/03/29 01:12:28;;;;;;;;;;;18.60;56.70;;;;;;5032195;28;1292;-69
2022/03/29 01:14:53;;;;;;;;;;;18.60;56.70;;;;;;5032496;28;1337;-69
2022/03/29 01:20:06;;;;;;;;;;;18.60;56.70;;;;;;5032468;28;939;-70
2022/03/29 01:22:31;;;;;;;;;;;18.60;56.70;;;;;;5014541;28;1910;-71
2022/03/29 01:24:57;;;;;;;;;;;18.60;56.70;;;;;;5031039;28;1406;-70
2022/03/29 01:27:22;;;;;;;;;;;18.60;56.80;;;;;;5032600;28;1367;-70
2022/03/29 01:29:48;;;;;;;;;;;18.60;56.80;;;;;;5035074;28;1076;-70
2022/03/29 01:32:14;;;;;;;;;;;18.60;56.80;;;;;;5035787;28;1388;-69
2022/03/29 01:34:40;;;;;;;;;;;18.60;56.80;;;;;;5034751;28;1299;-70
2022/03/29 01:37:05;;;;;;;;;;;18.60;56.80;;;;;;5025440;28;1276;-70
2022/03/29 01:39:34;;;;;;;;;;;18.60;56.80;;;;;;5035664;28;1390;-70
2022/03/29 01:41:59;;;;;;;;;;;18.60;56.80;;;;;;5035617;28;1926;-69
2022/03/29 01:44:25;;;;;;;;;;;18.60;56.80;;;;;;5035983;28;1369;-70
2022/03/29 01:46:50;;;;;;;;;;;18.60;56.90;;;;;;5035336;28;1389;-70
2022/03/29 01:49:16;;;;;;;;;;;18.60;56.90;;;;;;5035588;28;1111;-71
2022/03/29 01:51:41;;;;;;;;;;;18.60;56.90;;;;;;5035409;28;1353;-68
2022/03/29 01:54:07;;;;;;;;;;;18.60;56.90;;;;;;5034274;28;1428;-70
2022/03/29 01:56:33;;;;;;;;;;;18.60;56.90;;;;;;5034957;28;1346;-70
2022/03/29 01:58:58;;;;;;;;;;;18.60;56.90;;;;;;5034311;28;1263;-70
2022/03/29 02:01:24;;;;;;;;;;;18.60;56.90;;;;;;5027576;28;1975;-70
2022/03/29 02:03:49;;;;;;;;;;;18.60;56.90;;;;;;5024443;28;1103;-70
2022/03/29 02:06:15;;;;;;;;;;;18.60;57.00;;;;;;5034969;28;1262;-69
2022/03/29 02:08:40;;;;;;;;;;;18.50;57.00;;;;;;5025124;28;1588;-69
2022/03/29 02:11:07;;;;;;;;;;;18.60;57.00;;;;;;5035245;28;1314;-70
2022/03/29 02:13:33;;;;;;;;;;;18.50;57.00;;;;;;5035208;28;1285;-70
2022/03/29 02:15:58;;;;;;;;;;;18.50;57.00;;;;;;5033660;28;1193;-70
2022/03/29 02:18:23;;;;;;;;;;;18.60;57.00;;;;;;5024779;28;876;-70
2022/03/29 02:20:49;;;;;;;;;;;18.60;57.00;;;;;;5030844;28;1902;-69
2022/03/29 02:23:15;;;;;;;;;;;18.50;57.00;;;;;;5033396;28;1127;-70
2022/03/29 02:25:41;;;;;;;;;;;18.50;57.00;;;;;;5034857;28;1357;-70
2022/03/29 02:28:07;;;;;;;;;;;18.50;57.10;;;;;;5035373;28;1396;-70
2022/03/29 02:30:32;;;;;;;;;;;18.50;57.10;;;;;;5034751;28;1448;-69
2022/03/29 02:32:58;;;;;;;;;;;18.50;57.10;;;;;;5034767;28;1071;-70
2022/03/29 02:35:23;;;;;;;;;;;18.50;57.10;;;;;;5034629;28;1060;-69
2022/03/29 02:37:49;;;;;;;;;;;18.50;57.10;;;;;;5025773;28;1114;-70
2022/03/29 02:40:14;;;;;;;;;;;18.50;57.10;;;;;;5033533;28;1334;-70
2022/03/29 02:42:43;;;;;;;;;;;18.50;57.10;;;;;;5034469;28;1961;-69
2022/03/29 02:45:11;;;;;;;;;;;18.50;57.10;;;;;;5034535;28;1329;-70
2022/03/29 02:47:36;;;;;;;;;;;18.50;57.20;;;;;;5034286;28;1415;-71
2022/03/29 02:50:02;;;;;;;;;;;18.50;57.10;;;;;;5034357;28;1451;-70
2022/03/29 02:52:27;;;;;;;;;;;18.50;57.20;;;;;;5025099;28;1122;-70
2022/03/29 02:54:53;;;;;;;;;;;18.50;57.20;;;;;;5030521;28;1205;-71
2022/03/29 02:57:18;;;;;;;;;;;18.50;57.20;;;;;;5034241;28;1371;-70
2022/03/29 02:59:45;;;;;;;;;;;18.50;57.20;;;;;;5014496;28;1319;-70
2022/03/29 03:02:11;;;;;;;;;;;18.50;57.20;;;;;;5025247;28;1902;-69
2022/03/29 03:04:36;;;;;;;;;;;18.50;57.20;;;;;;5029681;28;1046;-69
2022/03/29 03:07:02;;;;;;;;;;;18.50;57.20;;;;;;5025450;28;1300;-70
2022/03/29 03:09:27;;;;;;;;;;;18.50;57.20;;;;;;5028515;28;1410;-69
2022/03/29 03:11:53;;;;;;;;;;;18.50;57.20;;;;;;5033941;28;1365;-70
2022/03/29 03:14:18;;;;;;;;;;;18.50;57.30;;;;;;5034008;28;1289;-70
2022/03/29 03:16:43;;;;;;;;;;;18.50;57.20;;;;;;5032317;28;1332;-69
2022/03/29 03:19:09;;;;;;;;;;;18.50;57.30;;;;;;5032480;28;1372;-69
2022/03/29 03:21:35;;;;;;;;;;;18.50;57.30;;;;;;5033591;28;1969;-69
2022/03/29 03:24:00;;;;;;;;;;;18.50;57.30;;;;;;5032905;28;1399;-71
2022/03/29 03:26:26;;;;;;;;;;;18.50;57.30;;;;;;5033743;28;1308;-70
2022/03/29 03:28:51;;;;;;;;;;;18.50;57.30;;;;;;5033854;28;1335;-69
2022/03/29 03:31:17;;;;;;;;;;;18.50;57.30;;;;;;5033672;28;1318;-70
2022/03/29 03:33:42;;;;;;;;;;;18.50;57.30;;;;;;5033441;28;1044;-70
2022/03/29 03:36:08;;;;;;;;;;;18.50;57.30;;;;;;5027702;28;1333;-69
2022/03/29 03:38:33;;;;;;;;;;;18.50;57.30;;;;;;5029034;28;1124;-70
2022/03/29 03:40:59;;;;;;;;;;;18.50;57.30;;;;;;5033452;28;1894;-70
2022/03/29 03:43:24;;;;;;;;;;;18.50;57.30;;;;;;5033375;28;1391;-70
2022/03/29 03:45:50;;;;;;;;;;;18.50;57.30;;;;;;5033185;28;1340;-70
2022/03/29 03:48:15;;;;;;;;;;;18.50;57.40;;;;;;5032073;28;1254;-70
2022/03/29 03:50:41;;;;;;;;;;;18.50;57.40;;;;;;5033228;28;1073;-70
2022/03/29 03:53:07;;;;;;;;;;;18.50;57.40;;;;;;5032013;28;1452;-69
2022/03/29 03:55:32;;;;;;;;;;;18.50;58.00;;;;;;5031837;28;1324;-70
2022/03/29 03:57:57;;;;;;;;;;;18.40;57.90;;;;;;5031063;28;1068;-70
2022/03/29 04:00:24;;;;;;;;;;;18.40;57.30;;;;;;5021496;28;1300;-70
2022/03/29 04:02:50;;;;;;;;;;;18.50;57.40;;;;;;5017987;28;1965;-70
2022/03/29 04:05:15;;;;;;;;;;;18.50;57.40;;;;;;5025855;28;915;-70
2022/03/29 04:07:41;;;;;;;;;;;18.40;57.40;;;;;;5016298;28;1372;-69
2022/03/29 04:10:07;;;;;;;;;;;18.50;57.40;;;;;;5032031;28;1367;-69
2022/03/29 04:12:32;;;;;;;;;;;18.40;57.40;;;;;;5031326;28;1294;-70
2022/03/29 04:14:58;;;;;;;;;;;18.40;57.40;;;;;;5052239;28;1314;-69
2022/03/29 04:17:23;;;;;;;;;;;18.40;57.40;;;;;;5018272;28;1310;-69
2022/03/29 04:19:49;;;;;;;;;;;18.40;57.40;;;;;;5032838;28;1114;-70
2022/03/29 04:22:18;;;;;;;;;;;18.40;57.40;;;;;;5033005;28;1965;-70
2022/03/29 04:24:47;;;;;;;;;;;18.40;57.40;;;;;;5032969;28;1417;-69
2022/03/29 04:27:12;;;;;;;;;;;18.40;57.50;;;;;;5032647;28;1305;-69
2022/03/29 04:29:37;;;;;;;;;;;18.40;57.40;;;;;;5031670;28;1243;-69
2022/03/29 04:32:03;;;;;;;;;;;18.40;57.40;;;;;;5032054;28;1262;-69
2022/03/29 04:34:28;;;;;;;;;;;18.40;57.50;;;;;;5012938;28;1063;-69
2022/03/29 04:36:54;;;;;;;;;;;18.40;57.50;;;;;;5013301;28;1219;-70
2022/03/29 04:39:19;;;;;;;;;;;18.40;57.50;;;;;;5024502;28;1107;-70
2022/03/29 04:41:45;;;;;;;;;;;18.50;57.50;;;;;;5026004;28;1894;-69
2022/03/29 04:44:10;;;;;;;;;;;18.50;57.50;;;;;;5013151;28;1080;-69
2022/03/29 04:46:36;;;;;;;;;;;18.50;57.40;;;;;;5026174;28;1344;-70
2022/03/29 04:49:01;;;;;;;;;;;18.50;57.30;;;;;;5032624;28;1342;-69
2022/03/29 04:51:26;;;;;;;;;;;18.60;57.30;;;;;;5032567;28;1415;-70
2022/03/29 04:53:52;;;;;;;;;;;18.60;57.10;;;;;;5024674;28;1118;-70
2022/03/29 04:56:18;;;;;;;;;;;18.60;57.00;;;;;;5025996;28;1678;-69
2022/03/29 04:58:43;;;;;;;;;;;18.70;57.00;;;;;;5032497;28;1372;-69
2022/03/29 05:01:09;;;;;;;;;;;18.70;56.90;;;;;;5016059;28;1902;-69
2022/03/29 05:03:34;;;;;;;;;;;18.70;56.70;;;;;;5022382;28;911;-69
2022/03/29 05:06:00;;;;;;;;;;;18.80;56.70;;;;;;5035965;28;1293;-70
2022/03/29 05:08:25;;;;;;;;;;;18.80;56.50;;;;;;5026333;28;1632;-69
2022/03/29 05:10:50;;;;;;;;;;;18.90;56.50;;;;;;5021838;28;1103;-69
2022/03/29 05:13:16;;;;;;;;;;;18.90;56.40;;;;;;5029323;28;1134;-69
2022/03/29 05:15:41;;;;;;;;;;;18.90;56.30;;;;;;5028281;28;1551;-69
2022/03/29 05:18:07;;;;;;;;;;;18.90;56.20;;;;;;5034946;28;1394;-70
2022/03/29 05:20:32;;;;;;;;;;;19.00;56.20;;;;;;5036085;28;1272;-69
2022/03/29 05:22:59;;;;;;;;;;;19.00;56.10;;;;;;5018408;28;1898;-69
2022/03/29 05:25:24;;;;;;;;;;;19.00;56.10;;;;;;5016386;28;1084;-69
2022/03/29 05:27:53;;;;;;;;;;;19.00;56.00;;;;;;5034693;28;1283;-69
2022/03/29 05:30:19;;;;;;;;;;;19.00;56.00;;;;;;5021422;28;1194;-70
2022/03/29 05:32:45;;;;;;;;;;;19.10;56.00;;;;;;5027391;28;1092;-69
2022/03/29 05:35:11;;;;;;;;;;;19.10;55.90;;;;;;5029827;28;1115;-70
2022/03/29 05:37:37;;;;;;;;;;;19.10;55.90;;;;;;5025074;28;1248;-70
2022/03/29 05:40:03;;;;;;;;;;;19.10;55.90;;;;;;5034579;28;1288;-69
2022/03/29 05:42:28;;;;;;;;;;;19.10;55.90;;;;;;5027467;28;1968;-70
2022/03/29 05:44:54;;;;;;;;;;;19.10;55.80;;;;;;5029175;28;979;-70
2022/03/29 05:50:03;;;;;;;;;;;19.10;55.80;;;;;;5032578;28;1881;-70
2022/03/29 05:52:29;;;;;;;;;;;19.10;55.70;;;;;;5016685;28;1318;-69
2022/03/29 05:54:54;;;;;;;;;;;19.20;55.80;;;;;;5052490;28;1327;-69
2022/03/29 05:57:20;;;;;;;;;;;19.20;55.80;;;;;;5033953;28;1341;-68
2022/03/29 05:59:45;;;;;;;;;;;19.20;55.70;;;;;;5032697;28;1237;-70
2022/03/29 06:02:11;;;;;;;;;;;19.20;55.70;;;;;;5026091;28;1894;-70
2022/03/29 06:04:36;;;;;;;;;;;19.20;55.40;;;;;;5030748;28;1142;-70
2022/03/29 06:07:04;;;;;;;;;;;19.20;53.20;;;;;;5030332;28;1486;-70
2022/03/29 06:09:30;;;;;;;;;;;19.20;53.40;;;;;;5032813;28;1324;-69
2022/03/29 06:11:55;;;;;;;;;;;19.20;53.30;;;;;;5033880;28;1417;-69
2022/03/29 06:14:20;;;;;;;;;;;19.10;53.40;;;;;;5034829;28;1300;-69
2022/03/29 06:16:46;;;;;;;;;;;19.10;53.30;;;;;;5034654;28;1274;-69
2022/03/29 06:19:11;;;;;;;;;;;19.10;53.40;;;;;;5033873;28;1315;-69
2022/03/29 06:21:37;;;;;;;;;;;19.10;53.40;;;;;;5033869;28;1894;-69
2022/03/29 06:24:06;;;;;;;;;;;19.10;53.60;;;;;;5034982;28;1158;-69
2022/03/29 06:26:31;;;;;;;;;;;19.10;53.80;;;;;;5033505;28;1321;-69
2022/03/29 06:28:58;;;;;;;;;;;19.10;54.00;;;;;;5034531;28;1311;-69
2022/03/29 06:31:23;;;;;;;;;;;19.10;54.10;;;;;;5034713;28;1356;-69
2022/03/29 06:33:49;;;;;;;;;;;19.10;54.20;;;;;;5034642;28;1294;-70
2022/03/29 06:36:15;;;;;;;;;;;19.10;54.30;;;;;;5029326;28;1319;-66
2022/03/29 06:38:41;;;;;;;;;;;19.10;54.40;;;;;;5030611;28;1084;-68
2022/03/29 06:41:06;;;;;;;;;;;19.10;54.50;;;;;;5034457;28;1953;-69
2022/03/29 06:43:34;;;;;;;;;;;19.10;54.60;;;;;;5032161;28;1275;-71
2022/03/29 06:46:00;;;;;;;;;;;19.10;54.60;;;;;;5023540;28;1275;-68
2022/03/29 06:48:26;;;;;;;;;;;19.10;54.70;;;;;;5030241;28;1810;-68
2022/03/29 06:50:51;;;;;;;;;;;19.10;54.80;;;;;;5013796;28;1312;-69
2022/03/29 06:53:17;;;;;;;;;;;19.10;54.80;;;;;;5022811;28;1499;-70
2022/03/29 06:55:42;;;;;;;;;;;19.10;54.80;;;;;;5014484;28;1263;-69
2022/03/29 06:58:08;;;;;;;;;;;19.10;54.90;;;;;;5026763;28;1329;-71
2022/03/29 07:00:34;;;;;;;;;;;19.10;54.90;;;;;;5023402;28;1354;-70
2022/03/29 07:02:59;;;;;;;;;;;19.10;55.00;;;;;;5018257;28;1898;-69
2022/03/29 07:05:25;;;;;;;;;;;19.10;55.00;;;;;;5013455;28;1348;-69
2022/03/29 07:07:50;;;;;;;;;;;19.10;55.00;;;;;;5014236;28;1549;-69
2022/03/29 07:13:01;;;;;;;;;;;19.10;55.80;;;;;;5014415;28;1052;-69
2022/03/29 07:15:26;;;;;;;;;;;19.10;55.60;;;;;;5029073;28;1272;-70
2022/03/29 07:17:52;;;;;;;;;;;19.20;55.90;;;;;;5028819;28;1442;-70
2022/03/29 07:20:19;;;;;;;;;;;19.20;55.90;;;;;;5048074;28;1263;-70
2022/03/29 07:22:44;;;;;;;;;;;19.30;56.10;;;;;;5012660;28;1965;-69
2022/03/29 07:25:11;;;;;;;;;;;19.30;56.30;;;;;;5011681;28;1252;-70
2022/03/29 07:27:36;;;;;;;;;;;19.40;56.30;;;;;;5013025;28;1261;-69
2022/03/29 07:30:03;;;;;;;;;;;19.40;56.30;;;;;;5013424;28;1215;-70
2022/03/29 07:32:29;;;;;;;;;;;19.50;56.30;;;;;;5012004;28;2155;-69
2022/03/29 07:34:55;;;;;;;;;;;19.60;56.20;;;;;;5019473;28;1761;-69
2022/03/29 07:37:21;;;;;;;;;;;19.70;56.00;;;;;;5013574;28;1407;-69
2022/03/29 07:39:47;;;;;;;;;;;19.80;55.80;;;;;;5024076;28;1618;-69
2022/03/29 07:42:12;;;;;;;;;;;19.90;55.60;;;;;;5029582;28;1953;-69
2022/03/29 07:44:38;;;;;;;;;;;20.00;55.50;;;;;;5013918;28;1515;-69
2022/03/29 07:47:03;;;;;;;;;;;20.00;55.30;;;;;;5026859;28;1355;-69
2022/03/29 07:49:29;;;;;;;;;;;20.10;55.20;;;;;;5024782;28;1204;-70
2022/03/29 07:51:57;;;;;;;;;;;20.10;55.10;;;;;;5033648;28;1628;-69
2022/03/29 07:54:23;;;;;;;;;;;20.10;55.10;;;;;;5032353;28;1596;-70
2022/03/29 07:56:49;;;;;;;;;;;20.20;55.10;;;;;;5032801;28;1553;-69
2022/03/29 07:59:14;;;;;;;;;;;20.20;55.10;;;;;;5032823;28;1381;-69
2022/03/29 08:01:39;;;;;;;;;;;20.20;55.10;;;;;;5025132;28;1971;-70
2022/03/29 08:04:05;;;;;;;;;;;20.30;55.20;;;;;;5028803;28;1285;-69
2022/03/29 08:06:30;;;;;;;;;;;20.30;55.20;;;;;;5016200;28;1406;-70
2022/03/29 08:08:56;;;;;;;;;;;20.30;55.30;;;;;;5022613;28;1704;-70
2022/03/29 08:11:22;;;;;;;;;;;20.30;55.30;;;;;;5033093;28;1594;-70
2022/03/29 08:13:47;;;;;;;;;;;20.30;55.40;;;;;;5033230;28;1374;-69
2022/03/29 08:16:13;;;;;;;;;;;20.30;55.40;;;;;;5031711;28;1765;-70
2022/03/29 08:18:39;;;;;;;;;;;20.30;55.40;;;;;;5033015;28;1355;-70
2022/03/29 08:21:47;;;;;;;;;;;20.30;55.50;;;;;;5029459;28;1887;-69
2022/03/29 08:23:50;;;;;;;;;;;20.30;55.70;;;;;;5026276;28;1695;-70
2022/03/29 08:26:16;;;;;;;;;;;20.30;55.80;;;;;;5013170;28;1358;-70
2022/03/29 08:28:41;;;;;;;;;;;20.30;55.90;;;;;;5026092;28;1658;-70
2022/03/29 08:31:07;;;;;;;;;;;20.30;55.90;;;;;;5019601;28;1504;-70
2022/03/29 08:33:32;;;;;;;;;;;20.30;56.00;;;;;;5032325;28;1079;-70
2022/03/29 08:35:57;;;;;;;;;;;20.30;56.00;;;;;;5013751;28;1254;-70
2022/03/29 08:38:24;;;;;;;;;;;20.30;56.00;;;;;;5042843;28;2370;-70
2022/03/29 08:40:50;;;;;;;;;;;20.30;56.00;;;;;;5015798;28;1898;-70
2022/03/29 08:43:16;;;;;;;;;;;20.30;56.10;;;;;;5015295;28;1441;-70
2022/03/29 08:45:43;;;;;;;;;;;20.30;56.10;;;;;;5021306;28;1992;-69
2022/03/29 08:48:08;;;;;;;;;;;20.30;56.20;;;;;;5031616;28;1676;-69
2022/03/29 08:50:36;;;;;;;;;;;20.30;56.30;;;;;;5029944;28;1519;-69
2022/03/29 08:53:02;;;;;;;;;;;20.30;56.40;;;;;;5036848;28;1590;-69
2022/03/29 08:55:27;;;;;;;;;;;20.30;56.50;;;;;;5022188;28;1295;-69
2022/03/29 08:57:55;;;;;;;;;;;20.30;57.00;;;;;;5035384;28;1621;-69
2022/03/29 09:00:21;;;;;;;;;;;20.30;56.50;;;;;;5017683;28;1522;-69
2022/03/29 09:02:46;;;;;;;;;;;20.30;56.50;;;;;;5015491;28;1977;-69
2022/03/29 09:05:12;;;;;;;;;;;20.30;56.50;;;;;;5016705;28;1139;-69
2022/03/29 09:07:50;;;;;;;;;;;20.30;56.60;;;;;;5019887;28;1539;-69
2022/03/29 09:10:15;;;;;;;;;;;20.30;56.60;;;;;;5020409;28;2289;-69
2022/03/29 09:12:41;;;;;;;;;;;20.30;56.70;;;;;;5019530;28;1615;-69
2022/03/29 09:15:06;;;;;;;;;;;20.30;56.70;;;;;;5024935;28;1569;-70
2022/03/29 09:17:32;;;;;;;;;;;20.30;56.70;;;;;;5035081;28;1723;-71
2022/03/29 09:19:59;;;;;;;;;;;20.30;56.70;;;;;;5036070;28;1685;-70
2022/03/29 09:22:43;;;;;;;;;;;20.30;56.80;;;;;;5036208;28;1898;-70
2022/03/29 09:25:09;;;;;;;;;;;20.30;56.90;;;;;;5036283;28;1653;-70
2022/03/29 09:27:48;;;;;;;;;;;20.30;56.90;;;;;;5034546;28;1718;-70
2022/03/29 09:30:13;;;;;;;;;;;20.30;56.90;;;;;;5036130;28;1637;-70
2022/03/29 09:32:51;;;;;;;;;;;20.30;56.90;;;;;;5019007;28;2010;-70
2022/03/29 09:35:17;;;;;;;;;;;20.30;57.00;;;;;;5021036;28;1569;-71
2022/03/29 09:37:44;;;;;;;;;;;20.30;57.10;;;;;;5024357;28;1500;-71
2022/03/29 09:40:10;;;;;;;;;;;20.30;57.10;;;;;;5035739;28;1714;-70
2022/03/29 09:42:35;;;;;;;;;;;20.30;57.10;;;;;;5034362;28;1906;-69
2022/03/29 09:45:01;;;;;;;;;;;20.30;57.70;;;;;;5035771;28;1423;-70
2022/03/29 09:47:27;;;;;;;;;;;20.30;57.20;;;;;;5016824;28;1901;-70
2022/03/29 09:50:01;;;;;;;;;;;20.20;57.10;;;;;;5034059;28;1616;-70
2022/03/29 09:52:27;;;;;;;;;;;20.20;57.20;;;;;;5035492;28;1425;-70
2022/03/29 09:55:05;;;;;;;;;;;20.20;57.20;;;;;;5035576;28;1350;-70
2022/03/29 09:57:40;;;;;;;;;;;20.20;57.30;;;;;;5051601;22;2037;-72
2022/03/29 10:00:07;;;;;;;;;;;20.20;57.30;;;;;;5062029;28;1449;-71
2022/03/29 10:02:36;;;;;;;;;;;20.20;57.30;;;;;;5034077;28;1910;-71
2022/03/29 10:05:02;;;;;;;;;;;20.20;57.40;;;;;;5039781;28;1080;-72
2022/03/29 10:07:27;;;;;;;;;;;20.20;57.40;;;;;;5034559;28;1768;-71
2022/03/29 10:09:53;;;;;;;;;;;20.20;57.40;;;;;;5014210;28;1251;-71
2022/03/29 10:12:19;;;;;;;;;;;20.10;57.50;;;;;;5059414;28;1068;-71
2022/03/29 10:14:46;;;;;;;;;;;20.10;57.50;;;;;;5034029;28;1186;-71
2022/03/29 10:17:12;;;;;;;;;;;20.20;57.70;;;;;;5033729;28;1308;-71
2022/03/29 10:19:38;;;;;;;;;;;20.10;57.70;;;;;;5033945;28;1487;-71
2022/03/29 10:22:03;;;;;;;;;;;20.10;57.70;;;;;;5034494;28;1958;-72
2022/03/29 10:24:29;;;;;;;;;;;20.10;57.80;;;;;;5004242;28;1981;-74
2022/03/29 10:26:56;;;;;;;;;;;20.10;57.80;;;;;;5046512;28;1443;-73
2022/03/29 10:29:21;;;;;;;;;;;20.10;57.90;;;;;;5047257;28;1238;-73
2022/03/29 10:31:50;;;;;;;;;;;20.10;57.90;;;;;;5015261;28;1384;-73
2022/03/29 10:34:16;;;;;;;;;;;20.10;57.90;;;;;;5034851;28;1422;-75
2022/03/29 10:37:00;;;;;;;;;;;20.10;57.90;;;;;;5025998;28;1660;-72
2022/03/29 10:39:37;;;;;;;;;;;20.10;58.00;;;;;;5010665;28;855;-73
2022/03/29 10:42:03;;;;;;;;;;;20.10;58.00;;;;;;5020047;28;1887;-74
2022/03/29 10:44:48;;;;;;;;;;;20.10;58.10;;;;;;5007080;28;1612;-73
2022/03/29 10:47:24;;;;;;;;;;;20.10;58.20;;;;;;5020812;28;1370;-73
2022/03/29 10:49:49;;;;;;;;;;;20.10;58.30;;;;;;5025340;28;1465;-73
2022/03/29 10:52:21;;;;;;;;;;;20.00;58.30;;;;;;5052804;28;1554;-73
2022/03/29 10:54:46;;;;;;;;;;;20.00;58.30;;;;;;5033986;28;1386;-73
2022/03/29 10:57:26;;;;;;;;;;;20.00;58.40;;;;;;5021684;28;1170;-73
2022/03/29 10:59:58;;;;;;;;;;;20.00;58.50;;;;;;5030259;28;1419;-73
2022/03/29 11:02:24;;;;;;;;;;;20.00;58.60;;;;;;5013530;28;1911;-73
2022/03/29 11:05:08;;;;;;;;;;;20.00;58.60;;;;;;5063687;28;1445;-73
2022/03/29 11:07:35;;;;;;;;;;;19.90;58.60;;;;;;5019444;28;1561;-73
2022/03/29 11:10:06;;;;;;;;;;;19.90;58.70;;;;;;5033781;28;1577;-72
2022/03/29 11:12:45;;;;;;;;;;;19.90;58.60;;;;;;5020726;28;1372;-73
2022/03/29 11:15:36;;;;;;;;;;;19.90;59.30;;;;;;5024562;28;843;-72
2022/03/29 11:18:04;;;;;;;;;;;19.90;58.70;;;;;;5014322;28;1500;-73
2022/03/29 11:20:38;;;;;;;;;;;19.90;58.80;;;;;;5029001;28;1620;-72
2022/03/29 11:23:06;;;;;;;;;;;19.90;58.80;;;;;;5035932;28;1967;-72
2022/03/29 11:25:42;;;;;;;;;;;19.90;58.90;;;;;;5019067;28;1747;-72
2022/03/29 11:28:09;;;;;;;;;;;19.90;58.90;;;;;;5015062;28;1496;-73
2022/03/29 11:30:35;;;;;;;;;;;19.80;58.90;;;;;;5046656;28;1421;-73
2022/03/29 11:33:01;;;;;;;;;;;19.80;59.00;;;;;;5014996;28;1570;-73
2022/03/29 11:35:27;;;;;;;;;;;19.80;59.10;;;;;;5019352;28;1030;-73
2022/03/29 11:37:53;;;;;;;;;;;19.80;59.10;;;;;;5025488;28;1149;-74
2022/03/29 11:40:19;;;;;;;;;;;19.80;59.10;;;;;;5014119;28;840;-72
2022/03/29 11:42:49;;;;;;;;;;;19.80;59.10;;;;;;5022638;28;1902;-71
2022/03/29 11:45:15;;;;;;;;;;;19.80;59.10;;;;;;5033495;28;1658;-70
2022/03/29 11:47:50;;;;;;;;;;;19.80;59.20;;;;;;5023045;28;1148;-72
2022/03/29 11:50:27;;;;;;;;;;;19.70;59.20;;;;;;5054126;28;1670;-72
2022/03/29 11:52:52;;;;;;;;;;;19.70;59.30;;;;;;5025688;28;1478;-73
2022/03/29 11:55:18;;;;;;;;;;;19.70;59.30;;;;;;5024520;28;1388;-73
2022/03/29 11:57:44;;;;;;;;;;;19.70;59.30;;;;;;5045205;28;1582;-73
2022/03/29 12:00:24;;;;;;;;;;;19.70;59.40;;;;;;5032170;28;881;-73
2022/03/29 12:02:50;;;;;;;;;;;19.70;59.40;;;;;;5031348;28;1956;-73
2022/03/29 12:05:20;;;;;;;;;;;19.70;59.50;;;;;;5013609;28;1083;-73
2022/03/29 12:07:46;;;;;;;;;;;19.70;59.50;;;;;;5059926;28;1260;-73
2022/03/29 12:10:12;;;;;;;;;;;19.70;59.50;;;;;;5033450;28;831;-73
2022/03/29 12:12:38;;;;;;;;;;;19.70;59.60;;;;;;5033110;28;1418;-72
2022/03/29 12:15:04;;;;;;;;;;;19.70;59.60;;;;;;5033225;28;1273;-72
2022/03/29 12:17:30;;;;;;;;;;;19.70;59.60;;;;;;5030530;28;1362;-72
2022/03/29 12:19:56;;;;;;;;;;;19.70;59.70;;;;;;5020434;28;1770;-72
2022/03/29 12:22:23;;;;;;;;;;;19.70;59.70;;;;;;5032850;28;1902;-72
2022/03/29 12:24:54;;;;;;;;;;;19.70;59.70;;;;;;5025190;28;854;-73
2022/03/29 12:27:20;;;;;;;;;;;19.70;59.80;;;;;;5053170;28;2146;-73
2022/03/29 12:29:47;;;;;;;;;;;19.70;59.80;;;;;;5047117;28;1480;-74
2022/03/29 12:32:13;;;;;;;;;;;19.70;59.80;;;;;;5021629;28;1607;-73
2022/03/29 12:34:38;;;;;;;;;;;19.70;59.80;;;;;;5031791;28;1064;-73
2022/03/29 12:37:04;;;;;;;;;;;19.70;59.70;;;;;;5017993;28;1373;-73
2022/03/29 12:39:34;;;;;;;;;;;19.70;59.70;;;;;;5023968;28;843;-72
2022/03/29 12:41:59;;;;;;;;;;;19.70;59.70;;;;;;5026373;28;1910;-73
2022/03/29 12:44:47;;;;;;;;;;;19.70;59.70;;;;;;5021765;28;995;-73
2022/03/29 12:47:13;;;;;;;;;;;19.70;59.70;;;;;;5019287;28;1617;-73
2022/03/29 12:49:38;;;;;;;;;;;19.70;59.70;;;;;;5031789;28;1581;-73
2022/03/29 12:52:04;;;;;;;;;;;19.70;59.70;;;;;;5031660;28;1541;-72
2022/03/29 12:54:41;;;;;;;;;;;19.70;59.70;;;;;;5020430;28;954;-74
2022/03/29 12:57:07;;;;;;;;;;;19.70;59.70;;;;;;5031559;28;1687;-75
2022/03/29 12:59:37;;;;;;;;;;;19.70;59.80;;;;;;5019099;28;1296;-74
2022/03/29 13:02:09;;;;;;;;;;;19.70;59.90;;;;;;5056654;28;1898;-74
2022/03/29 13:04:39;;;;;;;;;;;19.70;60.00;;;;;;5026071;28;1377;-74
2022/03/29 13:07:05;;;;;;;;;;;19.70;60.10;;;;;;5047566;28;1554;-75
2022/03/29 13:09:30;;;;;;;;;;;19.60;60.00;;;;;;5028685;28;1735;-74
2022/03/29 13:12:14;;;;;;;;;;;19.70;60.10;;;;;;5032588;28;1372;-73
2022/03/29 13:14:42;;;;;;;;;;;19.60;60.10;;;;;;5026633;28;1663;-73
2022/03/29 13:17:07;;;;;;;;;;;19.60;60.10;;;;;;5024249;28;1419;-74
2022/03/29 13:19:33;;;;;;;;;;;19.60;60.20;;;;;;5019304;28;1396;-74
2022/03/29 13:21:59;;;;;;;;;;;19.60;60.30;;;;;;5032367;28;1949;-73
2022/03/29 13:24:33;;;;;;;;;;;19.60;60.30;;;;;;5033452;28;1660;-73
2022/03/29 13:27:00;;;;;;;;;;;19.60;60.30;;;;;;5034704;28;1629;-73
2022/03/29 13:29:27;;;;;;;;;;;19.60;60.30;;;;;;5018117;28;1963;-72
2022/03/29 13:31:53;;;;;;;;;;;19.50;60.30;;;;;;5031292;28;1602;-73
2022/03/29 13:34:18;;;;;;;;;;;19.60;60.50;;;;;;5035058;28;1576;-72
2022/03/29 13:36:43;;;;;;;;;;;19.50;60.40;;;;;;5025725;28;1616;-72
2022/03/29 13:39:10;;;;;;;;;;;19.60;60.40;;;;;;5029381;28;1463;-74
2022/03/29 13:41:36;;;;;;;;;;;19.50;60.50;;;;;;5048005;28;1961;-73
2022/03/29 13:44:01;;;;;;;;;;;19.50;60.50;;;;;;5023785;28;1419;-70
2022/03/29 13:46:26;;;;;;;;;;;19.50;60.60;;;;;;5035322;28;1605;-71
2022/03/29 13:48:52;;;;;;;;;;;19.50;60.60;;;;;;5034325;28;1706;-70
2022/03/29 13:51:17;;;;;;;;;;;19.50;60.50;;;;;;5023307;28;1446;-72
2022/03/29 13:53:43;;;;;;;;;;;19.50;60.50;;;;;;5034704;28;1721;-72
2022/03/29 13:56:09;;;;;;;;;;;19.50;60.70;;;;;;5021851;28;1199;-75
2022/03/29 13:58:34;;;;;;;;;;;19.60;60.80;;;;;;5034624;28;1304;-77
2022/03/29 14:01:00;;;;;;;;;;;19.60;60.80;;;;;;5035552;28;1903;-73
2022/03/29 14:03:26;;;;;;;;;;;19.50;60.70;;;;;;5020977;28;799;-74
2022/03/29 14:05:51;;;;;;;;;;;19.50;60.80;;;;;;5021700;28;1461;-73
2022/03/29 14:08:17;;;;;;;;;;;19.50;60.80;;;;;;5015454;28;1534;-73
2022/03/29 14:10:42;;;;;;;;;;;19.50;60.80;;;;;;5026659;28;922;-73
2022/03/29 14:13:08;;;;;;;;;;;19.60;60.90;;;;;;5020705;28;1322;-72
2022/03/29 14:15:36;;;;;;;;;;;19.60;60.90;;;;;;5022590;28;1052;-74
2022/03/29 14:18:07;;;;;;;;;;;19.60;61.00;;;;;;5034026;28;1695;-74
2022/03/29 14:20:33;;;;;;;;;;;19.60;60.90;;;;;;5021207;28;1278;-73
2022/03/29 14:22:58;;;;;;;;;;;19.60;60.90;;;;;;5041116;28;1955;-76
2022/03/29 14:25:26;;;;;;;;;;;19.60;60.80;;;;;;5020656;28;1053;-73
2022/03/29 14:27:51;;;;;;;;;;;19.60;60.80;;;;;;5021953;28;1502;-75
2022/03/29 14:30:17;;;;;;;;;;;19.60;60.80;;;;;;5021474;28;1535;-73
2022/03/29 14:32:42;;;;;;;;;;;19.70;60.70;;;;;;5027196;28;788;-73
2022/03/29 14:35:08;;;;;;;;;;;19.70;60.70;;;;;;5015004;28;867;-74
2022/03/29 14:37:36;;;;;;;;;;;19.70;60.50;;;;;;5014738;28;1394;-72